sensor_id;sensor_type;location;lat;lon;timestamp;pressure;altitude;pressure_sealevel;temperature;humidity
18835;BME280;9546;59.262;18.036;2022-07-04T07:12:28;100962.69;;;25.92;100.00
18835;BME280;9546;59.262;18.036;2022-07-04T07:14:55;100975.66;;;26.08;100.00
18835;BME280;9546;59.262;18.036;2022-07-04T07:17:22;100973.75;;;25.70;100.00
18835;BME280;9546;59.262;18.036;2022-07-04T07:22:16;64177.75;;;-139.62;100.00
18835;BME280;9546;59.262;18.036;2022-07-04T07:24:43;64177.75;;;-139.62;100.00
18835;BME280;9546;59.262;18.036;2022-07-04T07:27:10;64177.75;;;-139.62;100.00
18835;BME280;9546;59.262;18.036;2022-07-04T07:29:38;64177.75;;;-139.62;100.00
18835;BME280;9546;59.262;18.036;2022-07-04T07:32:06;64177.75;;;-139.62;100.00
18835;BME280;9546;59.262;18.036;2022-07-04T07:34:33;64177.75;;;-139.62;100.00
18835;BME280;9546;59.262;18.036;2022-07-04T07:37:00;64177.75;;;-139.62;100.00
18835;BME280;9546;59.262;18.036;2022-07-04T07:39:27;64177.75;;;-139.62;100.00
18835;BME280;9546;59.262;18.036;2022-07-04T07:41:54;64177.75;;;-139.62;100.00
18835;BME280;9546;59.262;18.036;2022-07-04T07:44:21;64177.75;;;-139.62;100.00
18835;BME280;9546;59.262;18.036;2022-07-04T07:46:49;64177.75;;;-139.62;100.00
18835;BME280;9546;59.262;18.036;2022-07-04T07:49:16;64177.75;;;-139.62;100.00
18835;BME280;9546;59.262;18.036;2022-07-04T07:51:43;64177.75;;;-139.62;100.00
18835;BME280;9546;59.262;18.036;2022-07-04T07:54:10;64177.75;;;-139.62;100.00
18835;BME280;9546;59.262;18.036;2022-07-04T07:56:37;64177.75;;;-139.62;100.00
18835;BME280;9546;59.262;18.036;2022-07-04T07:59:04;64177.75;;;-139.62;100.00
18835;BME280;9546;59.262;18.036;2022-07-04T08:01:30;64177.75;;;-139.62;100.00
18835;BME280;9546;59.262;18.036;2022-07-04T08:03:59;64177.75;;;-139.62;100.00
18835;BME280;9546;59.262;18.036;2022-07-04T08:06:43;64177.75;;;-139.62;100.00
18835;BME280;9546;59.262;18.036;2022-07-04T08:09:10;64177.75;;;-139.62;100.00
18835;BME280;9546;59.262;18.036;2022-07-04T08:11:37;64177.75;;;-139.62;100.00
18835;BME280;9546;59.262;18.036;2022-07-04T08:14:04;64177.75;;;-139.62;100.00
18835;BME280;9546;59.262;18.036;2022-07-04T08:16:32;64177.75;;;-139.62;100.00
18835;BME280;9546;59.262;18.036;2022-07-04T08:19:01;64177.75;;;-139.62;100.00
18835;BME280;9546;59.262;18.036;2022-07-04T08:21:28;64177.75;;;-139.62;100.00
18835;BME280;9546;59.262;18.036;2022-07-04T08:23:55;64177.75;;;-139.62;100.00
18835;BME280;9546;59.262;18.036;2022-07-04T08:26:22;64177.75;;;-139.62;100.00
18835;BME280;9546;59.262;18.036;2022-07-04T08:28:49;64177.75;;;-139.62;100.00
18835;BME280;9546;59.262;18.036;2022-07-04T08:31:17;64177.75;;;-139.62;100.00
18835;BME280;9546;59.262;18.036;2022-07-04T08:33:44;64177.75;;;-139.62;100.00
18835;BME280;9546;59.262;18.036;2022-07-04T08:36:13;64177.75;;;-139.62;100.00
18835;BME280;9546;59.262;18.036;2022-07-04T08:38:41;64177.75;;;-139.62;100.00
18835;BME280;9546;59.262;18.036;2022-07-04T08:41:10;64177.75;;;-139.62;100.00
18835;BME280;9546;59.262;18.036;2022-07-04T08:43:59;64177.75;;;-139.62;100.00
18835;BME280;9546;59.262;18.036;2022-07-04T08:46:47;64177.75;;;-139.62;100.00
18835;BME280;9546;59.262;18.036;2022-07-04T08:49:40;64177.75;;;-139.62;100.00
18835;BME280;9546;59.262;18.036;2022-07-04T13:12:41;100760.34;;;41.78;100.00
18835;BME280;9546;59.262;18.036;2022-07-04T13:15:09;100737.41;;;41.80;100.00
18835;BME280;9546;59.262;18.036;2022-07-04T13:17:37;100724.91;;;42.39;100.00
18835;BME280;9546;59.262;18.036;2022-07-04T13:20:05;64177.75;;;-139.62;100.00
18835;BME280;9546;59.262;18.036;2022-07-04T13:22:32;100726.94;;;48.69;96.96
18835;BME280;9546;59.262;18.036;2022-07-04T13:24:59;64177.75;;;-139.62;100.00
18835;BME280;9546;59.262;18.036;2022-07-04T13:27:29;64177.75;;;-139.62;100.00
18835;BME280;9546;59.262;18.036;2022-07-04T13:29:57;64177.75;;;-139.62;100.00
18835;BME280;9546;59.262;18.036;2022-07-04T13:32:24;100684.28;;;40.98;71.43
18835;BME280;9546;59.262;18.036;2022-07-04T13:34:51;100688.84;;;38.93;89.40
18835;BME280;9546;59.262;18.036;2022-07-04T13:37:20;100674.31;;;38.54;90.34
18835;BME280;9546;59.262;18.036;2022-07-04T13:39:50;100673.00;;;38.08;81.83
18835;BME280;9546;59.262;18.036;2022-07-04T13:42:18;100662.75;;;38.99;88.47
18835;BME280;9546;59.262;18.036;2022-07-04T13:45:00;100675.69;;;35.73;86.87
18835;BME280;9546;59.262;18.036;2022-07-04T13:47:27;100692.84;;;39.39;85.52
18835;BME280;9546;59.262;18.036;2022-07-04T13:49:54;100647.59;;;37.68;83.27
18835;BME280;9546;59.262;18.036;2022-07-04T13:52:21;100673.84;;;40.20;79.76
18835;BME280;9546;59.262;18.036;2022-07-04T13:54:47;100646.41;;;40.57;69.39
18835;BME280;9546;59.262;18.036;2022-07-04T13:57:14;100647.59;;;37.65;74.92
18835;BME280;9546;59.262;18.036;2022-07-04T13:59:41;100659.66;;;34.92;80.18
18835;BME280;9546;59.262;18.036;2022-07-04T14:02:10;64177.75;;;-139.62;100.00
18835;BME280;9546;59.262;18.036;2022-07-04T14:04:36;64177.75;;;-139.62;100.00
18835;BME280;9546;59.262;18.036;2022-07-04T14:07:03;100637.16;;;32.37;100.00
18835;BME280;9546;59.262;18.036;2022-07-04T14:09:30;100640.16;;;32.48;100.00
18835;BME280;9546;59.262;18.036;2022-07-04T14:11:57;64177.75;;;-139.62;100.00
18835;BME280;9546;59.262;18.036;2022-07-04T14:14:23;64177.75;;;-139.62;100.00
18835;BME280;9546;59.262;18.036;2022-07-04T14:16:50;64177.75;;;-139.62;100.00
18835;BME280;9546;59.262;18.036;2022-07-04T14:19:18;100659.22;;;29.47;100.00
18835;BME280;9546;59.262;18.036;2022-07-04T14:21:45;100676.75;;;29.28;100.00
18835;BME280;9546;59.262;18.036;2022-07-04T14:24:12;100715.66;;;28.35;100.00
18835;BME280;9546;59.262;18.036;2022-07-04T14:26:39;100713.59;;;28.32;100.00
18835;BME280;9546;59.262;18.036;2022-07-04T14:29:05;100699.50;;;28.13;100.00
18835;BME280;9546;59.262;18.036;2022-07-04T14:31:32;100701.94;;;29.65;100.00
18835;BME280;9546;59.262;18.036;2022-07-04T14:33:59;100706.75;;;31.08;100.00
18835;BME280;9546;59.262;18.036;2022-07-04T14:36:28;100693.59;;;31.20;100.00
18835;BME280;9546;59.262;18.036;2022-07-04T14:38:54;100692.50;;;30.05;100.00
18835;BME280;9546;59.262;18.036;2022-07-04T14:41:21;100679.84;;;30.04;100.00
18835;BME280;9546;59.262;18.036;2022-07-04T14:43:48;100686.66;;;30.80;100.00
18835;BME280;9546;59.262;18.036;2022-07-04T14:46:15;100680.09;;;31.68;100.00
18835;BME280;9546;59.262;18.036;2022-07-04T14:48:42;100679.53;;;30.64;100.00
18835;BME280;9546;59.262;18.036;2022-07-04T14:51:08;100691.84;;;30.24;100.00
18835;BME280;9546;59.262;18.036;2022-07-04T23:11:52;100831.13;;;18.70;100.00
18835;BME280;9546;59.262;18.036;2022-07-04T23:14:19;64177.75;;;-139.62;100.00
18835;BME280;9546;59.262;18.036;2022-07-04T23:16:46;100712.03;;;20.51;100.00
18835;BME280;9546;59.262;18.036;2022-07-04T23:19:12;100717.13;;;20.29;100.00
18835;BME280;9546;59.262;18.036;2022-07-04T23:21:39;100724.03;;;20.17;100.00
18835;BME280;9546;59.262;18.036;2022-07-04T23:24:06;100730.13;;;20.04;100.00
18835;BME280;9546;59.262;18.036;2022-07-04T23:26:33;100719.94;;;19.91;100.00
18835;BME280;9546;59.262;18.036;2022-07-04T23:29:01;100714.81;;;20.18;100.00
18835;BME280;9546;59.262;18.036;2022-07-04T23:31:28;100676.34;;;20.01;100.00
18835;BME280;9546;59.262;18.036;2022-07-04T23:33:55;100710.25;;;20.37;100.00
18835;BME280;9546;59.262;18.036;2022-07-04T23:36:22;100705.31;;;20.15;100.00
18835;BME280;9546;59.262;18.036;2022-07-04T23:38:49;100699.78;;;19.97;100.00
18835;BME280;9546;59.262;18.036;2022-07-04T23:41:16;100715.00;;;19.93;100.00
18835;BME280;9546;59.262;18.036;2022-07-04T23:43:43;100713.44;;;19.87;100.00
18835;BME280;9546;59.262;18.036;2022-07-04T23:46:11;100707.75;;;19.79;100.00
18835;BME280;9546;59.262;18.036;2022-07-04T23:48:38;100706.09;;;19.83;100.00
18835;BME280;9546;59.262;18.036;2022-07-04T23:51:05;100699.66;;;20.07;100.00
18835;BME280;9546;59.262;18.036;2022-07-04T23:53:32;100693.47;;;20.02;100.00
18835;BME280;9546;59.262;18.036;2022-07-04T23:55:59;100698.63;;;20.03;100.00
18835;BME280;9546;59.262;18.036;2022-07-04T23:58:27;100686.34;;;20.11;100.00
